Time;durP1;ratioP1;P1;durP2;ratioP2;P2;SDS_P1;SDS_P2;PMS_P1;PMS_P2;Temp;Humidity;BMP_temperature;BMP_pressure;BME280_temperature;BME280_humidity;BME280_pressure;Samples;Min_cycle;Max_cycle;Signal;HPM_P1;HPM_P2
2024/01/22 00:00:58;;;;;;;5.77;5.27;;;;;;;;;;5090600;28;20470;-64
2024/01/22 00:03:25;;;;;;;6.73;6.00;;;;;;;;;;5100562;28;20450;-64
2024/01/22 00:05:51;;;;;;;7.33;5.67;;;;;;;;;;5100750;28;20525;-65
2024/01/22 00:08:20;;;;;;;5.50;4.93;;;;;;;;;;5092929;28;20442;-66
2024/01/22 00:10:55;;;;;;;8.87;6.10;;;;;;;;;;5103011;28;20970;-63
2024/01/22 00:13:21;;;;;;;6.40;4.80;;;;;;;;;;5103799;28;20446;-66
2024/01/22 00:15:48;;;;;;;6.00;4.20;;;;;;;;;;5103397;28;20477;-66
2024/01/22 00:18:20;;;;;;;7.93;5.00;;;;;;;;;;5103165;28;20624;-65
2024/01/22 00:20:47;;;;;;;7.00;4.17;;;;;;;;;;5098159;28;20475;-64
2024/01/22 00:23:13;;;;;;;10.00;5.20;;;;;;;;;;5100889;28;20471;-66
2024/01/22 00:25:45;;;;;;;5.53;4.97;;;;;;;;;;5098372;28;20577;-66
2024/01/22 00:28:11;;;;;;;6.13;4.30;;;;;;;;;;5097636;28;20462;-64
2024/01/22 00:30:38;;;;;;;4.67;4.27;;;;;;;;;;5093722;28;20459;-63
2024/01/22 00:33:05;;;;;;;13.27;4.70;;;;;;;;;;5100248;28;20538;-66
2024/01/22 00:35:31;;;;;;;6.10;5.10;;;;;;;;;;5092062;28;20456;-65
2024/01/22 00:38:02;;;;;;;9.30;5.30;;;;;;;;;;5102010;28;21019;-65
2024/01/22 00:40:29;;;;;;;6.13;4.60;;;;;;;;;;5097169;28;20499;-65
2024/01/22 00:42:56;;;;;;;6.47;5.37;;;;;;;;;;5108010;28;20550;-65
2024/01/22 00:45:23;;;;;;;7.30;5.10;;;;;;;;;;5098498;28;20845;-65
2024/01/22 00:47:56;;;;;;;9.37;4.40;;;;;;;;;;5100328;28;20474;-66
2024/01/22 00:50:22;;;;;;;8.30;3.63;;;;;;;;;;5090764;28;20800;-65
2024/01/22 00:52:48;;;;;;;5.13;3.70;;;;;;;;;;5094218;28;20474;-65
2024/01/22 00:55:15;;;;;;;5.57;3.97;;;;;;;;;;5095975;28;20511;-66
2024/01/22 00:57:46;;;;;;;4.33;3.97;;;;;;;;;;5096821;28;20478;-66
2024/01/22 01:00:15;;;;;;;5.27;4.77;;;;;;;;;;5100858;28;20447;-61
2024/01/22 01:02:41;;;;;;;4.43;4.10;;;;;;;;;;5099036;28;20831;-65
2024/01/22 01:05:10;;;;;;;4.60;4.20;;;;;;;;;;5096530;28;20509;-66
2024/01/22 01:07:38;;;;;;;7.03;4.80;;;;;;;;;;5098586;28;20481;-62
2024/01/22 01:10:05;;;;;;;8.17;4.77;;;;;;;;;;5096646;28;20454;-64
2024/01/22 01:12:32;;;;;;;4.80;4.40;;;;;;;;;;5091523;28;20459;-65
2024/01/22 01:14:58;;;;;;;5.17;4.50;;;;;;;;;;5091691;28;20443;-65
2024/01/22 01:17:29;;;;;;;7.20;4.40;;;;;;;;;;5099898;28;20447;-66
2024/01/22 01:19:56;;;;;;;4.80;4.13;;;;;;;;;;5098605;28;20450;-63
2024/01/22 01:22:22;;;;;;;3.97;3.63;;;;;;;;;;5103904;28;20481;-65
2024/01/22 01:24:49;;;;;;;5.73;3.83;;;;;;;;;;5089260;28;20519;-65
2024/01/22 01:27:19;;;;;;;7.43;4.43;;;;;;;;;;5102058;28;20526;-65
2024/01/22 01:29:46;;;;;;;3.93;2.67;;;;;;;;;;5094009;28;20527;-61
2024/01/22 01:32:13;;;;;;;8.83;3.93;;;;;;;;;;5100707;28;20466;-65
2024/01/22 01:34:40;;;;;;;5.47;4.00;;;;;;;;;;5092070;28;20451;-65
2024/01/22 01:37:07;;;;;;;6.27;4.10;;;;;;;;;;5097351;28;20451;-65
2024/01/22 01:39:38;;;;;;;3.80;3.47;;;;;;;;;;5089865;28;20518;-65
2024/01/22 01:42:04;;;;;;;6.33;3.50;;;;;;;;;;5097315;28;20431;-66
2024/01/22 01:44:47;;;;;;;6.63;4.20;;;;;;;;;;5102530;28;20461;-66
2024/01/22 01:47:13;;;;;;;4.03;3.67;;;;;;;;;;5086670;28;20501;-65
2024/01/22 01:49:42;;;;;;;4.20;3.90;;;;;;;;;;5100880;28;20486;-65
2024/01/22 01:52:11;;;;;;;4.10;3.70;;;;;;;;;;5095907;28;20551;-62
2024/01/22 01:54:37;;;;;;;5.17;4.30;;;;;;;;;;5097853;28;20439;-64
2024/01/22 01:57:04;;;;;;;5.70;4.40;;;;;;;;;;5089953;28;20794;-65
2024/01/22 01:59:31;;;;;;;6.03;4.40;;;;;;;;;;5090745;28;20739;-65
2024/01/22 02:02:02;;;;;;;5.60;4.60;;;;;;;;;;5088755;28;20796;-65
2024/01/22 02:04:30;;;;;;;3.50;3.20;;;;;;;;;;5099141;28;20482;-65
2024/01/22 02:06:58;;;;;;;3.80;3.50;;;;;;;;;;5094173;28;20483;-65
2024/01/22 02:09:39;;;;;;;4.37;3.80;;;;;;;;;;5097825;28;20446;-65
2024/01/22 02:12:10;;;;;;;3.47;3.17;;;;;;;;;;5109670;28;20970;-65
2024/01/22 02:14:37;;;;;;;7.40;4.13;;;;;;;;;;5094820;28;20478;-63
2024/01/22 02:17:03;;;;;;;9.00;4.40;;;;;;;;;;5088854;28;20459;-63
2024/01/22 02:19:29;;;;;;;4.83;4.03;;;;;;;;;;5103207;28;20458;-63
2024/01/22 02:22:06;;;;;;;4.60;4.30;;;;;;;;;;5106509;28;20482;-63
2024/01/22 02:24:34;;;;;;;4.30;3.90;;;;;;;;;;5101854;28;20490;-63
2024/01/22 02:27:05;;;;;;;7.80;3.73;;;;;;;;;;5103015;28;20525;-64
2024/01/22 02:29:32;;;;;;;4.37;4.00;;;;;;;;;;5099125;28;20431;-60
2024/01/22 02:31:59;;;;;;;4.37;4.00;;;;;;;;;;5102603;28;20423;-63
2024/01/22 02:34:25;;;;;;;5.00;4.47;;;;;;;;;;5098560;28;21069;-64
2024/01/22 02:36:51;;;;;;;5.13;4.40;;;;;;;;;;5099197;28;20483;-64
2024/01/22 02:39:22;;;;;;;5.60;4.47;;;;;;;;;;5096191;28;20514;-64
2024/01/22 02:41:50;;;;;;;4.27;3.90;;;;;;;;;;5092158;28;20479;-62
2024/01/22 02:44:17;;;;;;;4.80;4.30;;;;;;;;;;5102357;28;20558;-67
2024/01/22 02:46:43;;;;;;;4.70;4.30;;;;;;;;;;5099611;28;20493;-66
2024/01/22 02:49:16;;;;;;;4.33;4.03;;;;;;;;;;5095533;28;20821;-67
2024/01/22 02:51:42;;;;;;;4.60;4.30;;;;;;;;;;5100036;28;20423;-65
2024/01/22 02:54:09;;;;;;;4.83;4.47;;;;;;;;;;5102036;28;20495;-66
2024/01/22 02:56:35;;;;;;;5.73;5.27;;;;;;;;;;5103302;28;20486;-66
2024/01/22 02:59:08;;;;;;;4.37;4.07;;;;;;;;;;5099011;28;20478;-65
2024/01/22 03:01:34;;;;;;;3.83;3.63;;;;;;;;;;5102225;28;20566;-65
2024/01/22 03:04:01;;;;;;;4.67;4.37;;;;;;;;;;5106084;28;20502;-65
2024/01/22 03:06:27;;;;;;;4.63;4.30;;;;;;;;;;5105320;28;21078;-65
2024/01/22 03:09:00;;;;;;;4.73;4.43;;;;;;;;;;5094044;28;20479;-65
2024/01/22 03:11:27;;;;;;;5.20;4.70;;;;;;;;;;5104765;28;20446;-65
2024/01/22 03:13:53;;;;;;;5.93;4.37;;;;;;;;;;5104133;28;20465;-66
2024/01/22 03:16:31;;;;;;;4.27;4.07;;;;;;;;;;5096543;28;20978;-65
2024/01/22 03:18:57;;;;;;;3.97;3.77;;;;;;;;;;5095535;28;20460;-66
2024/01/22 03:21:24;;;;;;;4.00;3.73;;;;;;;;;;5086252;28;20459;-65
2024/01/22 03:23:54;;;;;;;5.13;4.63;;;;;;;;;;5092144;28;20523;-65
2024/01/22 03:26:21;;;;;;;4.57;4.17;;;;;;;;;;5099855;28;20510;-63
2024/01/22 03:28:48;;;;;;;5.37;4.87;;;;;;;;;;5098093;28;21443;-64
2024/01/22 03:31:24;;;;;;;4.23;3.93;;;;;;;;;;5093441;28;20471;-66
2024/01/22 03:33:50;;;;;;;5.37;4.97;;;;;;;;;;5098756;28;20442;-65
2024/01/22 03:36:17;;;;;;;4.20;4.00;;;;;;;;;;5101355;28;20483;-64
2024/01/22 03:38:45;;;;;;;4.90;4.57;;;;;;;;;;5058419;28;1127289;-65
2024/01/22 03:41:14;;;;;;;5.30;4.83;;;;;;;;;;5098696;28;20465;-61
2024/01/22 03:43:41;;;;;;;3.90;3.50;;;;;;;;;;5101705;28;20537;-64
2024/01/22 03:46:07;;;;;;;4.43;4.13;;;;;;;;;;5099111;28;21048;-67
2024/01/22 03:48:35;;;;;;;4.43;4.23;;;;;;;;;;5100758;28;20478;-66
2024/01/22 03:51:08;;;;;;;4.40;4.10;;;;;;;;;;5089856;28;20486;-65
2024/01/22 03:53:35;;;;;;;4.63;4.33;;;;;;;;;;5104948;28;20447;-65
2024/01/22 03:56:04;;;;;;;4.53;4.13;;;;;;;;;;5092761;28;20498;-65
2024/01/22 03:58:34;;;;;;;3.90;3.70;;;;;;;;;;5101609;28;20465;-65
2024/01/22 04:01:01;;;;;;;4.80;4.40;;;;;;;;;;5099912;28;20427;-65
2024/01/22 04:03:27;;;;;;;4.43;4.13;;;;;;;;;;5089975;28;20451;-65
2024/01/22 04:05:55;;;;;;;4.80;4.13;;;;;;;;;;5096153;28;20594;-65
2024/01/22 04:08:27;;;;;;;4.10;3.80;;;;;;;;;;5101025;28;20451;-65
2024/01/22 04:10:54;;;;;;;4.40;4.10;;;;;;;;;;5096372;28;20494;-64
2024/01/22 04:13:21;;;;;;;5.00;4.27;;;;;;;;;;5096362;28;20444;-64
2024/01/22 04:15:50;;;;;;;4.17;3.87;;;;;;;;;;5093747;28;20447;-65
2024/01/22 04:18:18;;;;;;;4.00;3.80;;;;;;;;;;5098601;28;20451;-63
2024/01/22 04:20:45;;;;;;;4.70;4.30;;;;;;;;;;5090379;28;20435;-64
2024/01/22 04:23:12;;;;;;;5.23;4.10;;;;;;;;;;5102218;28;20554;-65
2024/01/22 04:25:39;;;;;;;6.00;4.07;;;;;;;;;;5098942;28;20893;-65
2024/01/22 04:28:10;;;;;;;4.33;4.03;;;;;;;;;;5102022;28;20453;-65
2024/01/22 04:30:37;;;;;;;6.60;4.10;;;;;;;;;;5099805;28;20446;-63
2024/01/22 04:33:03;;;;;;;3.97;3.67;;;;;;;;;;5100553;28;20447;-66
2024/01/22 04:35:30;;;;;;;5.43;3.53;;;;;;;;;;5097464;28;20471;-65
2024/01/22 04:37:58;;;;;;;4.00;3.70;;;;;;;;;;5099650;28;20472;-65
2024/01/22 04:40:29;;;;;;;3.50;3.20;;;;;;;;;;5092131;28;20519;-62
2024/01/22 04:42:55;;;;;;;3.10;2.90;;;;;;;;;;5100226;28;20493;-64
2024/01/22 04:45:22;;;;;;;7.30;3.20;;;;;;;;;;5093400;28;20527;-65
2024/01/22 04:47:49;;;;;;;6.30;2.90;;;;;;;;;;5101959;28;20447;-65
2024/01/22 04:50:19;;;;;;;5.10;2.07;;;;;;;;;;5095507;28;20452;-65
2024/01/22 04:52:45;;;;;;;2.83;2.63;;;;;;;;;;5095223;28;20479;-64
2024/01/22 04:55:11;;;;;;;2.53;2.30;;;;;;;;;;5093682;28;20919;-65
2024/01/22 04:57:39;;;;;;;2.87;2.30;;;;;;;;;;5101259;28;20465;-65
2024/01/22 05:00:08;;;;;;;6.27;2.60;;;;;;;;;;5104138;28;20486;-65
2024/01/22 05:02:34;;;;;;;6.50;2.03;;;;;;;;;;5104582;28;20437;-62
2024/01/22 05:05:01;;;;;;;3.70;2.30;;;;;;;;;;5097456;28;20448;-64
2024/01/22 05:07:28;;;;;;;3.53;2.47;;;;;;;;;;5090579;28;20982;-65
2024/01/22 05:10:01;;;;;;;5.50;2.83;;;;;;;;;;5096244;28;20482;-65
2024/01/22 05:12:28;;;;;;;2.67;2.43;;;;;;;;;;5096736;28;20435;-63
2024/01/22 05:14:55;;;;;;;2.77;2.27;;;;;;;;;;5090422;28;20461;-64
2024/01/22 05:17:23;;;;;;;2.93;2.60;;;;;;;;;;5102684;28;20525;-65
2024/01/22 05:19:53;;;;;;;5.10;1.97;;;;;;;;;;5093490;28;20565;-65
2024/01/22 05:22:19;;;;;;;2.50;2.30;;;;;;;;;;5100272;28;20438;-63
2024/01/22 05:24:46;;;;;;;3.67;2.27;;;;;;;;;;5107074;28;20506;-64
2024/01/22 05:27:12;;;;;;;5.50;2.30;;;;;;;;;;5101615;28;20520;-65
2024/01/22 05:29:39;;;;;;;3.83;2.33;;;;;;;;;;5098452;28;20953;-65
2024/01/22 05:32:12;;;;;;;3.30;2.13;;;;;;;;;;5093587;28;20475;-65
2024/01/22 05:34:38;;;;;;;2.50;2.30;;;;;;;;;;5099378;28;20524;-68
2024/01/22 05:37:05;;;;;;;4.23;2.90;;;;;;;;;;5106679;28;20806;-66
2024/01/22 05:39:31;;;;;;;4.20;2.60;;;;;;;;;;5100264;28;20509;-69
2024/01/22 05:42:03;;;;;;;3.33;2.30;;;;;;;;;;5101582;28;20486;-67
2024/01/22 05:44:29;;;;;;;6.00;2.70;;;;;;;;;;5095147;28;20439;-68
2024/01/22 05:46:56;;;;;;;2.37;2.10;;;;;;;;;;5097211;28;20521;-68
2024/01/22 05:49:24;;;;;;;2.97;2.27;;;;;;;;;;5102356;28;20438;-65
2024/01/22 05:51:56;;;;;;;2.23;2.00;;;;;;;;;;5103363;28;20478;-65
2024/01/22 05:54:23;;;;;;;2.87;2.30;;;;;;;;;;5105415;28;20470;-67
2024/01/22 05:56:49;;;;;;;2.87;2.17;;;;;;;;;;5103572;28;20502;-67
2024/01/22 05:59:15;;;;;;;4.07;1.97;;;;;;;;;;5104839;28;20441;-69
2024/01/22 06:01:49;;;;;;;4.83;2.20;;;;;;;;;;5096558;28;20439;-67
2024/01/22 06:04:16;;;;;;;1.93;1.83;;;;;;;;;;5101509;28;20475;-67
2024/01/22 06:06:44;;;;;;;3.50;1.97;;;;;;;;;;5102478;28;20485;-67
2024/01/22 06:09:11;;;;;;;2.50;2.17;;;;;;;;;;5101025;28;20450;-66
2024/01/22 06:11:37;;;;;;;2.03;1.83;;;;;;;;;;5106266;28;20438;-65
2024/01/22 06:14:04;;;;;;;2.87;2.10;;;;;;;;;;5092240;28;20432;-65
2024/01/22 06:16:30;;;;;;;2.50;1.77;;;;;;;;;;5101362;28;20533;-68
2024/01/22 06:18:57;;;;;;;2.53;2.20;;;;;;;;;;5098057;28;20494;-67
2024/01/22 06:21:23;;;;;;;2.07;1.90;;;;;;;;;;5092514;28;20448;-68
2024/01/22 06:23:54;;;;;;;2.80;2.03;;;;;;;;;;5096505;28;20439;-67
2024/01/22 06:26:21;;;;;;;3.00;1.80;;;;;;;;;;5093949;28;20494;-67
2024/01/22 06:28:48;;;;;;;4.80;2.53;;;;;;;;;;5091795;28;20582;-67
2024/01/22 06:31:14;;;;;;;3.03;1.83;;;;;;;;;;5090227;28;20921;-68
2024/01/22 06:33:41;;;;;;;3.27;1.77;;;;;;;;;;5102273;28;20896;-68
2024/01/22 06:36:08;;;;;;;2.60;2.40;;;;;;;;;;5100390;28;20551;-64
2024/01/22 06:38:35;;;;;;;1.80;1.70;;;;;;;;;;5098868;28;20431;-66
2024/01/22 06:41:03;;;;;;;2.03;1.93;;;;;;;;;;5098799;28;20438;-70
2024/01/22 06:43:29;;;;;;;1.80;1.70;;;;;;;;;;5090346;28;20485;-69
2024/01/22 06:45:55;;;;;;;2.80;2.00;;;;;;;;;;5089170;28;20491;-65
2024/01/22 06:48:22;;;;;;;3.20;1.80;;;;;;;;;;5095828;28;20547;-65
2024/01/22 06:50:48;;;;;;;3.00;2.90;;;;;;;;;;5096494;28;20469;-65
2024/01/22 06:53:15;;;;;;;3.33;3.03;;;;;;;;;;5093294;28;20586;-66
2024/01/22 06:55:41;;;;;;;4.37;3.97;;;;;;;;;;5088661;28;20980;-64
2024/01/22 06:58:09;;;;;;;3.20;2.90;;;;;;;;;;5090474;28;20490;-65
2024/01/22 07:00:36;;;;;;;3.53;3.30;;;;;;;;;;5090554;28;20471;-66
2024/01/22 07:03:03;;;;;;;2.30;2.10;;;;;;;;;;5088867;28;20492;-67
2024/01/22 07:05:29;;;;;;;4.73;1.97;;;;;;;;;;5095924;28;20466;-66
2024/01/22 07:07:56;;;;;;;1.83;1.73;;;;;;;;;;5088297;28;20491;-67
2024/01/22 07:10:22;;;;;;;2.40;2.20;;;;;;;;;;5092134;28;20447;-66
2024/01/22 07:12:49;;;;;;;4.10;2.60;;;;;;;;;;5094492;28;20518;-66
2024/01/22 07:15:16;;;;;;;3.23;2.50;;;;;;;;;;5090782;28;20519;-67
2024/01/22 07:17:44;;;;;;;2.67;2.47;;;;;;;;;;5092754;28;20486;-67
2024/01/22 07:20:13;;;;;;;2.50;2.40;;;;;;;;;;5095323;28;20980;-67
2024/01/22 07:22:40;;;;;;;5.73;2.70;;;;;;;;;;5087366;28;20439;-67
2024/01/22 07:25:07;;;;;;;2.57;1.57;;;;;;;;;;5100078;28;20509;-73
2024/01/22 07:27:35;;;;;;;2.53;1.40;;;;;;;;;;5085718;28;20487;-71
2024/01/22 07:30:06;;;;;;;1.80;1.30;;;;;;;;;;5095979;28;20443;-76
2024/01/22 07:32:36;;;;;;;1.90;1.37;;;;;;;;;;5096227;28;20451;-73
2024/01/22 07:35:03;;;;;;;1.10;1.00;;;;;;;;;;5092342;28;20516;-74
2024/01/22 07:37:29;;;;;;;2.00;0.87;;;;;;;;;;5095290;28;20466;-73
2024/01/22 07:39:56;;;;;;;1.73;1.30;;;;;;;;;;5090743;28;20501;-74
2024/01/22 07:42:22;;;;;;;2.80;0.90;;;;;;;;;;5102475;28;20453;-73
2024/01/22 07:44:49;;;;;;;1.83;1.40;;;;;;;;;;5098301;28;20996;-73
2024/01/22 07:47:16;;;;;;;3.20;1.50;;;;;;;;;;5089750;28;21011;-73
2024/01/22 07:49:44;;;;;;;1.90;1.30;;;;;;;;;;5101991;28;20533;-73
2024/01/22 07:52:10;;;;;;;3.37;1.60;;;;;;;;;;5102982;28;20447;-72
2024/01/22 07:54:36;;;;;;;2.23;1.50;;;;;;;;;;5099259;28;20439;-70
2024/01/22 07:57:03;;;;;;;3.53;1.60;;;;;;;;;;5093868;28;20478;-69
2024/01/22 07:59:30;;;;;;;2.70;1.60;;;;;;;;;;5086624;28;20483;-70
2024/01/22 08:01:56;;;;;;;2.77;1.10;;;;;;;;;;5089207;28;20474;-69
2024/01/22 08:04:23;;;;;;;2.90;1.50;;;;;;;;;;5091817;28;20459;-70
2024/01/22 08:06:51;;;;;;;2.93;1.53;;;;;;;;;;5095604;28;20627;-70
2024/01/22 08:09:17;;;;;;;5.07;1.67;;;;;;;;;;5099348;28;20477;-70
2024/01/22 08:11:44;;;;;;;3.40;1.90;;;;;;;;;;5098012;28;20463;-70
2024/01/22 08:14:10;;;;;;;1.70;1.60;;;;;;;;;;5095973;28;20477;-71
2024/01/22 08:16:36;;;;;;;5.10;1.80;;;;;;;;;;5098118;28;20979;-71
2024/01/22 08:19:03;;;;;;;1.70;1.43;;;;;;;;;;5097784;28;20447;-69
2024/01/22 08:21:29;;;;;;;2.93;2.00;;;;;;;;;;5098170;28;20488;-70
2024/01/22 08:23:57;;;;;;;3.43;2.00;;;;;;;;;;5095105;28;20451;-70
2024/01/22 08:26:24;;;;;;;3.60;2.00;;;;;;;;;;5099248;28;20455;-72
2024/01/22 08:28:50;;;;;;;3.60;3.03;;;;;;;;;;5097042;28;20995;-70
2024/01/22 08:31:17;;;;;;;2.70;2.10;;;;;;;;;;5090399;28;20450;-70
2024/01/22 08:33:44;;;;;;;2.90;1.70;;;;;;;;;;5093187;28;20481;-70
2024/01/22 08:36:10;;;;;;;5.60;1.97;;;;;;;;;;5092843;28;20451;-72
2024/01/22 08:38:37;;;;;;;4.60;2.03;;;;;;;;;;5100035;28;20457;-70
2024/01/22 08:41:05;;;;;;;3.80;1.80;;;;;;;;;;5090387;28;20939;-70
2024/01/22 08:43:31;;;;;;;3.00;2.43;;;;;;;;;;5092726;28;20464;-72
2024/01/22 08:45:58;;;;;;;2.03;1.83;;;;;;;;;;5095733;28;20489;-71
2024/01/22 08:48:24;;;;;;;6.20;1.90;;;;;;;;;;5097280;28;20487;-72
2024/01/22 08:50:51;;;;;;;3.17;2.17;;;;;;;;;;5094667;28;20512;-71
2024/01/22 08:53:17;;;;;;;3.10;1.90;;;;;;;;;;5089971;28;21151;-72
2024/01/22 08:55:44;;;;;;;2.80;1.97;;;;;;;;;;5089441;28;20503;-73
2024/01/22 08:58:12;;;;;;;3.33;2.10;;;;;;;;;;5097702;28;21131;-73
2024/01/22 09:00:38;;;;;;;2.53;1.97;;;;;;;;;;5096359;28;20438;-68
2024/01/22 09:03:05;;;;;;;1.90;1.80;;;;;;;;;;5098140;28;20504;-69
2024/01/22 09:05:31;;;;;;;7.03;2.20;;;;;;;;;;5098169;28;20508;-70
2024/01/22 09:07:58;;;;;;;2.30;2.07;;;;;;;;;;5096964;28;20554;-70
2024/01/22 09:10:24;;;;;;;2.50;2.30;;;;;;;;;;5098294;28;20480;-68
2024/01/22 09:12:51;;;;;;;1.73;1.63;;;;;;;;;;5094572;28;20436;-69
2024/01/22 09:15:18;;;;;;;2.13;1.93;;;;;;;;;;5094263;28;20439;-70
2024/01/22 09:17:45;;;;;;;3.83;1.73;;;;;;;;;;5098183;28;20481;-69
2024/01/22 09:20:12;;;;;;;2.40;1.70;;;;;;;;;;5103809;28;20504;-69
2024/01/22 09:22:38;;;;;;;2.07;1.90;;;;;;;;;;5097356;28;20443;-69
2024/01/22 09:25:05;;;;;;;2.70;2.13;;;;;;;;;;5088094;28;20448;-67
2024/01/22 09:27:32;;;;;;;2.50;1.93;;;;;;;;;;5097707;28;20502;-69
2024/01/22 09:29:59;;;;;;;5.17;2.47;;;;;;;;;;5097858;28;20465;-68
2024/01/22 09:32:27;;;;;;;3.20;2.00;;;;;;;;;;5097900;28;20503;-67
2024/01/22 09:34:53;;;;;;;3.43;1.53;;;;;;;;;;5093127;28;20947;-70
2024/01/22 09:37:20;;;;;;;2.47;2.03;;;;;;;;;;5097373;28;20450;-69
2024/01/22 09:39:46;;;;;;;1.73;1.63;;;;;;;;;;5097805;28;21350;-69
2024/01/22 09:42:14;;;;;;;2.03;1.87;;;;;;;;;;5101515;28;20468;-69
2024/01/22 09:44:40;;;;;;;1.40;1.30;;;;;;;;;;5100341;28;20442;-68
2024/01/22 09:47:07;;;;;;;1.93;1.40;;;;;;;;;;5098775;28;20447;-69
2024/01/22 09:49:36;;;;;;;2.93;1.40;;;;;;;;;;5094349;28;20478;-69
2024/01/22 09:52:03;;;;;;;3.47;1.67;;;;;;;;;;5100814;28;20455;-67
2024/01/22 09:54:29;;;;;;;2.00;1.60;;;;;;;;;;5092604;28;20471;-68
2024/01/22 09:56:57;;;;;;;30.80;3.60;;;;;;;;;;5093847;28;20458;-67
2024/01/22 09:59:25;;;;;;;1.57;1.47;;;;;;;;;;5093766;28;20523;-68
2024/01/22 10:01:52;;;;;;;3.93;1.60;;;;;;;;;;5087500;28;20901;-68
2024/01/22 10:04:19;;;;;;;2.57;1.50;;;;;;;;;;5096581;28;20447;-69
2024/01/22 10:06:48;;;;;;;3.23;1.73;;;;;;;;;;5098086;28;21030;-67
2024/01/22 10:09:15;;;;;;;2.13;1.93;;;;;;;;;;5094272;28;20530;-68
2024/01/22 10:11:42;;;;;;;2.10;1.37;;;;;;;;;;5092501;28;20583;-68
2024/01/22 10:14:08;;;;;;;2.33;1.70;;;;;;;;;;5090346;28;20455;-70
2024/01/22 10:16:36;;;;;;;2.57;1.47;;;;;;;;;;5091577;28;20453;-69
2024/01/22 10:19:05;;;;;;;6.03;1.60;;;;;;;;;;5091351;28;20489;-68
2024/01/22 10:21:32;;;;;;;2.67;2.00;;;;;;;;;;5096997;28;20491;-68
2024/01/22 10:24:00;;;;;;;2.93;1.97;;;;;;;;;;5095626;28;20461;-66
2024/01/22 10:26:27;;;;;;;2.67;1.67;;;;;;;;;;5094451;28;20443;-67
2024/01/22 10:28:54;;;;;;;2.03;1.90;;;;;;;;;;5096796;28;20531;-66
2024/01/22 10:31:20;;;;;;;2.17;1.43;;;;;;;;;;5092132;28;20478;-69
2024/01/22 10:33:48;;;;;;;3.13;1.67;;;;;;;;;;5098042;28;20461;-69
2024/01/22 10:36:15;;;;;;;4.03;1.80;;;;;;;;;;5092982;28;20494;-70
2024/01/22 10:38:42;;;;;;;3.37;2.03;;;;;;;;;;5097870;28;20443;-68
2024/01/22 10:41:17;;;;;;;3.33;1.70;;;;;;;;;;5097723;28;20466;-69
2024/01/22 10:43:44;;;;;;;3.83;1.67;;;;;;;;;;5098596;28;20459;-71
2024/01/22 10:46:11;;;;;;;3.10;1.43;;;;;;;;;;5101283;28;20636;-71
2024/01/22 10:48:38;;;;;;;3.77;2.70;;;;;;;;;;5097739;28;20491;-72
2024/01/22 10:51:05;;;;;;;7.33;1.70;;;;;;;;;;5091822;28;20698;-70
2024/01/22 10:53:32;;;;;;;2.43;1.43;;;;;;;;;;5101902;28;20473;-70
2024/01/22 10:56:00;;;;;;;1.80;1.60;;;;;;;;;;5101417;28;20473;-69
2024/01/22 10:58:30;;;;;;;5.10;1.50;;;;;;;;;;5103807;28;20872;-68
2024/01/22 11:00:58;;;;;;;2.23;1.77;;;;;;;;;;5093750;28;20450;-69
2024/01/22 11:03:27;;;;;;;6.60;1.83;;;;;;;;;;5101765;28;20466;-67
2024/01/22 11:05:56;;;;;;;3.40;1.93;;;;;;;;;;5100731;28;20469;-67
2024/01/22 11:08:23;;;;;;;3.60;1.80;;;;;;;;;;5100260;28;20522;-66
2024/01/22 11:10:51;;;;;;;4.57;1.50;;;;;;;;;;5092774;28;20451;-67
2024/01/22 11:13:17;;;;;;;2.80;1.30;;;;;;;;;;5083965;28;20451;-67
2024/01/22 11:15:45;;;;;;;4.70;1.43;;;;;;;;;;5093960;28;20447;-68
2024/01/22 11:18:12;;;;;;;2.73;1.50;;;;;;;;;;5093855;28;20987;-68
2024/01/22 11:20:38;;;;;;;2.93;1.50;;;;;;;;;;5094211;28;20452;-69
2024/01/22 11:23:08;;;;;;;4.13;1.53;;;;;;;;;;5088846;28;20444;-68
2024/01/22 11:25:35;;;;;;;9.10;1.77;;;;;;;;;;5095691;28;20468;-68
2024/01/22 11:28:02;;;;;;;4.60;2.27;;;;;;;;;;5095308;28;20513;-68
2024/01/22 11:30:29;;;;;;;4.40;1.90;;;;;;;;;;5086959;28;20441;-67
2024/01/22 11:32:57;;;;;;;4.53;1.93;;;;;;;;;;5090613;28;20446;-68
2024/01/22 11:35:34;;;;;;;1.43;1.33;;;;;;;;;;5096919;28;20489;-69
2024/01/22 11:38:01;;;;;;;3.70;1.87;;;;;;;;;;5093740;28;20451;-68
2024/01/22 11:40:42;;;;;;;3.73;1.33;;;;;;;;;;5091606;28;20570;-67
2024/01/22 11:43:09;;;;;;;9.73;1.90;;;;;;;;;;5093114;28;20459;-68
2024/01/22 11:45:36;;;;;;;6.50;1.37;;;;;;;;;;5093023;28;20452;-68
2024/01/22 11:48:04;;;;;;;2.73;1.40;;;;;;;;;;5090989;28;20490;-68
2024/01/22 11:50:30;;;;;;;5.90;1.73;;;;;;;;;;5091586;28;20512;-69
2024/01/22 11:53:00;;;;;;;3.37;1.90;;;;;;;;;;5094482;28;20482;-73
2024/01/22 11:55:26;;;;;;;5.53;1.43;;;;;;;;;;5090763;28;20448;-70
2024/01/22 11:57:53;;;;;;;3.13;1.70;;;;;;;;;;5086353;28;20451;-70
2024/01/22 12:00:21;;;;;;;4.80;1.70;;;;;;;;;;5097158;28;20439;-71
2024/01/22 12:02:49;;;;;;;3.57;1.73;;;;;;;;;;5101078;28;20515;-68
2024/01/22 12:05:18;;;;;;;3.47;1.20;;;;;;;;;;5092874;28;20450;-67
2024/01/22 12:07:45;;;;;;;5.60;1.50;;;;;;;;;;5099535;28;20549;-67
2024/01/22 12:10:19;;;;;;;6.07;2.10;;;;;;;;;;5099900;28;20443;-68
2024/01/22 12:12:49;;;;;;;7.63;1.87;;;;;;;;;;5094006;28;20824;-68
2024/01/22 12:15:15;;;;;;;8.03;1.60;;;;;;;;;;5093419;28;20462;-70
2024/01/22 12:17:43;;;;;;;4.33;1.57;;;;;;;;;;5097241;28;20895;-70
2024/01/22 12:20:10;;;;;;;2.30;1.20;;;;;;;;;;5101594;28;20451;-69
2024/01/22 12:22:37;;;;;;;3.90;1.40;;;;;;;;;;5097805;28;20987;-69
2024/01/22 12:25:08;;;;;;;2.60;1.17;;;;;;;;;;5094541;28;20471;-68
2024/01/22 12:27:35;;;;;;;6.20;1.17;;;;;;;;;;5092349;28;20443;-68
2024/01/22 12:30:05;;;;;;;6.23;1.47;;;;;;;;;;5096392;28;20501;-68
2024/01/22 12:32:32;;;;;;;1.27;1.03;;;;;;;;;;5095979;28;20443;-69
2024/01/22 12:34:59;;;;;;;3.97;1.30;;;;;;;;;;5095545;28;20459;-68
2024/01/22 12:37:28;;;;;;;2.47;1.50;;;;;;;;;;5094704;28;20507;-68
2024/01/22 12:40:18;;;;;;;2.40;0.97;;;;;;;;;;5097380;28;20496;-68
2024/01/22 12:42:45;;;;;;;6.30;1.37;;;;;;;;;;5092879;28;20524;-68
2024/01/22 12:45:14;;;;;;;5.30;1.77;;;;;;;;;;5100920;28;20451;-68
2024/01/22 12:47:41;;;;;;;4.43;1.40;;;;;;;;;;5097852;28;20526;-68
2024/01/22 12:50:07;;;;;;;5.20;1.40;;;;;;;;;;5096718;28;20510;-67
2024/01/22 12:52:34;;;;;;;4.33;1.40;;;;;;;;;;5089900;28;20447;-68
2024/01/22 12:55:01;;;;;;;9.20;2.57;;;;;;;;;;5099044;28;20443;-67
2024/01/22 12:57:29;;;;;;;2.97;1.37;;;;;;;;;;5093574;28;20520;-68
2024/01/22 12:59:56;;;;;;;5.83;1.67;;;;;;;;;;5099014;28;20471;-71
2024/01/22 13:02:22;;;;;;;6.60;1.70;;;;;;;;;;5093311;28;20558;-69
2024/01/22 13:04:49;;;;;;;9.00;2.20;;;;;;;;;;5091258;28;20444;-75
2024/01/22 13:07:16;;;;;;;4.93;1.73;;;;;;;;;;5095688;28;20451;-67
2024/01/22 13:09:42;;;;;;;9.37;1.67;;;;;;;;;;5096334;28;20483;-68
2024/01/22 13:12:09;;;;;;;5.60;1.53;;;;;;;;;;5091014;28;20497;-68
2024/01/22 13:14:37;;;;;;;3.83;1.60;;;;;;;;;;5090486;28;20458;-67
2024/01/22 13:17:04;;;;;;;5.50;1.80;;;;;;;;;;5095709;28;20471;-69
2024/01/22 13:19:31;;;;;;;9.40;1.87;;;;;;;;;;5091397;28;20813;-68
2024/01/22 13:21:58;;;;;;;5.07;1.77;;;;;;;;;;5095808;28;20459;-69
2024/01/22 13:24:25;;;;;;;5.23;1.87;;;;;;;;;;5094982;28;20477;-67
2024/01/22 13:26:51;;;;;;;10.83;3.40;;;;;;;;;;5095956;28;20473;-68
2024/01/22 13:29:18;;;;;;;7.33;2.50;;;;;;;;;;5093675;28;20506;-72
2024/01/22 13:31:46;;;;;;;5.97;2.17;;;;;;;;;;5086857;28;20448;-78
2024/01/22 13:34:12;;;;;;;6.33;2.53;;;;;;;;;;5093844;28;20982;-74
2024/01/22 13:36:39;;;;;;;11.73;2.70;;;;;;;;;;5099573;28;20463;-73
2024/01/22 13:39:06;;;;;;;8.80;2.03;;;;;;;;;;5096333;28;20528;-73
2024/01/22 13:41:32;;;;;;;7.70;2.40;;;;;;;;;;5097174;28;20534;-76
2024/01/22 13:43:59;;;;;;;14.80;3.00;;;;;;;;;;5092777;28;20456;-73
2024/01/22 13:46:25;;;;;;;12.10;2.40;;;;;;;;;;5106751;28;20446;-77
2024/01/22 13:48:53;;;;;;;10.53;2.50;;;;;;;;;;5106137;28;20531;-73
2024/01/22 13:51:19;;;;;;;9.93;2.40;;;;;;;;;;5091337;28;20535;-74
2024/01/22 13:53:46;;;;;;;10.50;3.13;;;;;;;;;;5089583;28;20977;-73
2024/01/22 13:56:12;;;;;;;10.77;2.47;;;;;;;;;;5091975;28;20459;-72
2024/01/22 13:58:40;;;;;;;13.87;3.27;;;;;;;;;;5087955;28;20841;-74
2024/01/22 14:01:07;;;;;;;15.97;3.27;;;;;;;;;;5090452;28;20443;-74
2024/01/22 14:03:34;;;;;;;14.00;3.77;;;;;;;;;;5084670;28;20472;-74
2024/01/22 14:06:02;;;;;;;10.77;3.87;;;;;;;;;;5094061;28;20451;-73
2024/01/22 14:08:29;;;;;;;15.63;3.43;;;;;;;;;;5090034;28;20456;-74
2024/01/22 14:10:55;;;;;;;16.80;3.13;;;;;;;;;;5086991;28;20450;-75
2024/01/22 14:13:22;;;;;;;20.03;4.33;;;;;;;;;;5090467;28;20443;-74
2024/01/22 14:15:48;;;;;;;14.70;3.53;;;;;;;;;;5093338;28;20462;-75
2024/01/22 14:18:15;;;;;;;12.73;2.77;;;;;;;;;;5088638;28;20474;-76
2024/01/22 14:20:41;;;;;;;12.47;3.17;;;;;;;;;;5096006;28;20489;-72
2024/01/22 14:23:09;;;;;;;19.77;3.20;;;;;;;;;;5094718;28;20482;-72
2024/01/22 14:25:36;;;;;;;11.43;3.67;;;;;;;;;;5090710;28;20447;-71
2024/01/22 14:28:03;;;;;;;18.97;3.60;;;;;;;;;;5105047;28;20446;-73
2024/01/22 14:30:29;;;;;;;11.47;3.07;;;;;;;;;;5091030;28;20533;-73
2024/01/22 14:32:56;;;;;;;7.80;2.53;;;;;;;;;;5106259;28;20818;-75
2024/01/22 14:35:24;;;;;;;15.87;3.60;;;;;;;;;;5096163;28;20485;-73
2024/01/22 14:37:50;;;;;;;12.07;3.43;;;;;;;;;;5093680;28;20459;-71
2024/01/22 14:40:18;;;;;;;17.17;3.20;;;;;;;;;;5096415;28;20475;-76
2024/01/22 14:42:45;;;;;;;22.23;3.63;;;;;;;;;;5104311;28;20462;-74